Time;durP1;ratioP1;P1;durP2;ratioP2;P2;SDS_P1;SDS_P2;PMS_P1;PMS_P2;Temp;Humidity;BMP_temperature;BMP_pressure;BME280_temperature;BME280_humidity;BME280_pressure;Samples;Min_cycle;Max_cycle;Signal;HPM_P1;HPM_P2
2021/03/08 00:02:20;;;;;;;;;;;;;;;1.23;64.02;98628.77;1725378;83;20243;-75
2021/03/08 00:04:48;;;;;;;;;;;;;;;1.22;63.99;98624.52;1700381;83;20263;-74
2021/03/08 00:07:15;;;;;;;;;;;;;;;1.23;64.07;98620.13;1724463;83;20139;-74
2021/03/08 00:09:44;;;;;;;;;;;;;;;1.21;64.19;98615.03;1727347;83;20191;-74
2021/03/08 00:12:13;;;;;;;;;;;;;;;1.21;64.27;98620.24;1721689;83;20132;-75
2021/03/08 00:14:40;;;;;;;;;;;;;;;1.23;64.37;98616.23;1700695;83;20164;-74
2021/03/08 00:17:09;;;;;;;;;;;;;;;1.21;64.30;98611.13;1699828;83;20232;-75
2021/03/08 00:19:37;;;;;;;;;;;;;;;1.23;64.31;98604.02;1726656;83;20305;-74
2021/03/08 00:22:04;;;;;;;;;;;;;;;1.22;64.35;98607.59;1700590;83;20198;-74
2021/03/08 00:24:32;;;;;;;;;;;;;;;1.21;64.45;98598.10;1726231;82;20243;-75
2021/03/08 00:26:59;;;;;;;;;;;;;;;1.21;64.41;98592.89;1726317;82;20427;-74
2021/03/08 00:29:27;;;;;;;;;;;;;;;1.23;64.36;98596.20;1724951;83;20152;-75
2021/03/08 00:31:54;;;;;;;;;;;;;;;1.24;64.34;98590.55;1727113;83;20534;-74
2021/03/08 00:34:21;;;;;;;;;;;;;;;1.23;64.41;98591.00;1724682;83;20428;-74
2021/03/08 00:36:49;;;;;;;;;;;;;;;1.22;64.39;98576.34;1725840;83;20160;-74
2021/03/08 00:39:16;;;;;;;;;;;;;;;1.23;64.45;98573.25;1726090;82;20183;-74
2021/03/08 00:41:44;;;;;;;;;;;;;;;1.24;64.44;98577.53;1721268;83;20494;-74
2021/03/08 00:44:12;;;;;;;;;;;;;;;1.23;64.47;98571.47;1700016;83;20266;-75
2021/03/08 00:46:43;;;;;;;;;;;;;;;1.25;64.43;98568.27;1725605;83;20279;-74
2021/03/08 00:49:11;;;;;;;;;;;;;;;1.26;64.46;98571.25;1727074;83;20144;-75
2021/03/08 00:51:38;;;;;;;;;;;;;;;1.26;64.43;98564.73;1725940;83;20148;-75
2021/03/08 00:54:06;;;;;;;;;;;;;;;1.26;64.51;98563.44;1724853;83;20128;-74
2021/03/08 00:56:33;;;;;;;;;;;;;;;1.25;64.53;98559.16;1716890;83;20152;-75
2021/03/08 00:59:01;;;;;;;;;;;;;;;1.25;64.59;98553.95;1724299;83;20231;-74
2021/03/08 01:01:28;;;;;;;;;;;;;;;1.28;64.60;98555.50;1726290;83;20140;-76
2021/03/08 01:03:56;;;;;;;;;;;;;;;1.29;64.54;98557.14;1727109;83;20235;-75
2021/03/08 01:06:24;;;;;;;;;;;;;;;1.29;64.52;98550.19;1725829;83;20412;-76
2021/03/08 01:08:51;;;;;;;;;;;;;;;1.30;64.55;98551.83;1724987;83;20168;-76
2021/03/08 01:11:19;;;;;;;;;;;;;;;1.30;64.53;98540.59;1725004;83;20152;-74
2021/03/08 01:13:48;;;;;;;;;;;;;;;1.27;64.68;98539.51;1722002;83;20431;-75
2021/03/08 01:16:17;;;;;;;;;;;;;;;1.25;64.83;98537.02;1726874;83;20148;-74
2021/03/08 01:18:44;;;;;;;;;;;;;;;1.22;64.97;98535.97;1725290;83;20601;-74
2021/03/08 01:21:12;;;;;;;;;;;;;;;1.21;65.02;98529.08;1726246;83;20167;-75
2021/03/08 01:23:39;;;;;;;;;;;;;;;1.20;65.19;98523.98;1727518;83;20232;-73
2021/03/08 01:26:06;;;;;;;;;;;;;;;1.17;65.36;98525.06;1725832;83;20415;-75
2021/03/08 01:28:33;;;;;;;;;;;;;;;1.18;65.40;98520.22;1726641;82;20179;-73
2021/03/08 01:31:01;;;;;;;;;;;;;;;1.19;65.41;98528.38;1725523;82;20151;-73
2021/03/08 01:33:29;;;;;;;;;;;;;;;1.18;65.50;98526.73;1726031;82;20128;-74
2021/03/08 01:35:56;;;;;;;;;;;;;;;1.20;65.45;98522.23;1723449;83;20443;-75
2021/03/08 01:38:24;;;;;;;;;;;;;;;1.19;65.46;98524.95;1721558;83;20148;-73
2021/03/08 01:40:51;;;;;;;;;;;;;;;1.20;65.62;98522.23;1726055;83;20207;-73
2021/03/08 01:43:21;;;;;;;;;;;;;;;1.19;65.50;98513.23;1714347;83;20227;-73
2021/03/08 01:45:48;;;;;;;;;;;;;;;1.18;65.62;98516.31;1711155;83;20164;-74
2021/03/08 01:48:16;;;;;;;;;;;;;;;1.20;65.61;98522.69;1726138;82;20242;-74
2021/03/08 01:50:44;;;;;;;;;;;;;;;1.20;65.61;98517.02;1726219;83;20165;-74
2021/03/08 01:53:13;;;;;;;;;;;;;;;1.20;65.76;98515.72;1726856;83;20230;-74
2021/03/08 01:55:41;;;;;;;;;;;;;;;1.22;65.68;98514.31;1726330;83;20510;-73
2021/03/08 01:58:09;;;;;;;;;;;;;;;1.21;65.80;98520.45;1726638;82;20148;-73
2021/03/08 02:00:37;;;;;;;;;;;;;;;1.21;65.79;98517.36;1652840;86;20155;-73
2021/03/08 02:03:05;;;;;;;;;;;;;;;1.23;65.89;98520.67;1663607;85;20159;-72
2021/03/08 02:05:35;;;;;;;;;;;;;;;1.21;65.93;98513.45;1664859;86;20155;-74
2021/03/08 02:08:05;;;;;;;;;;;;;;;1.20;65.87;98523.53;1700280;84;20129;-73
2021/03/08 02:10:35;;;;;;;;;;;;;;;1.19;66.02;98516.66;1632380;86;20234;-73
2021/03/08 02:13:26;;;;;;;;;;;;;;;1.18;66.02;98517.62;1717212;83;20128;-73
2021/03/08 02:16:00;;;;;;;;;;;;;;;1.19;66.07;98515.35;1724087;83;20263;-73
2021/03/08 02:18:41;;;;;;;;;;;;;;;1.18;66.05;98520.67;1726441;83;20506;-73
2021/03/08 02:21:44;;;;;;;;;;;;;;;1.17;66.08;98522.45;1724466;83;20519;-72
2021/03/08 02:24:30;;;;;;;;;;;;;;;1.14;66.11;98513.56;1700905;83;20227;-73
2021/03/08 02:27:02;;;;;;;;;;;;;;;1.12;66.16;98521.97;1701540;83;20132;-75
2021/03/08 02:29:57;;;;;;;;;;;;;;;1.11;66.29;98519.02;1697918;83;20392;-73
2021/03/08 02:32:34;;;;;;;;;;;;;;;1.12;66.25;98519.36;1724981;83;20144;-74
2021/03/08 02:35:06;;;;;;;;;;;;;;;1.14;66.19;98507.05;1725860;83;20538;-76
2021/03/08 02:37:37;;;;;;;;;;;;;;;1.14;66.26;98517.47;1723055;83;20172;-76
2021/03/08 02:40:07;;;;;;;;;;;;;;;1.13;66.38;98515.83;1715284;83;20171;-75
2021/03/08 02:42:37;;;;;;;;;;;;;;;1.11;66.34;98511.21;1725824;83;20179;-74
2021/03/08 02:45:05;;;;;;;;;;;;;;;1.11;66.40;98512.52;1726039;83;20175;-74
2021/03/08 02:47:32;;;;;;;;;;;;;;;1.13;66.26;98506.23;1724599;83;20152;-75
2021/03/08 02:50:02;;;;;;;;;;;;;;;1.14;66.27;98504.00;1723748;83;20152;-76
2021/03/08 02:52:32;;;;;;;;;;;;;;;1.15;66.33;98504.82;1725347;83;20144;-73
2021/03/08 02:55:01;;;;;;;;;;;;;;;1.16;66.30;98500.80;1702247;83;20408;-74
2021/03/08 02:57:34;;;;;;;;;;;;;;;1.17;66.69;98492.51;1701095;83;20152;-74
2021/03/08 03:00:04;;;;;;;;;;;;;;;1.17;66.96;98502.92;1702439;83;20156;-73
2021/03/08 03:02:31;;;;;;;;;;;;;;;1.15;67.22;98499.13;1726961;83;20250;-73
2021/03/08 03:04:59;;;;;;;;;;;;;;;1.14;67.27;98503.15;1703136;83;20143;-74
2021/03/08 03:07:26;;;;;;;;;;;;;;;1.13;67.50;98495.81;1724769;83;20136;-75
2021/03/08 03:09:54;;;;;;;;;;;;;;;1.12;67.56;98501.98;1726632;82;20160;-74
2021/03/08 03:12:21;;;;;;;;;;;;;;;1.12;67.58;98499.83;1726482;82;20128;-75
2021/03/08 03:14:49;;;;;;;;;;;;;;;1.13;67.53;98514.05;1724884;83;20153;-75
2021/03/08 03:17:17;;;;;;;;;;;;;;;1.11;68.24;98499.02;1725067;82;20239;-73
2021/03/08 03:19:47;;;;;;;;;;;;;;;1.08;68.51;98511.44;1700977;83;20435;-74
2021/03/08 03:22:15;;;;;;;;;;;;;;;1.07;68.91;98518.91;1698772;83;20160;-75
2021/03/08 03:24:42;;;;;;;;;;;;;;;1.06;70.11;98512.02;1715493;83;20235;-74
2021/03/08 03:27:11;;;;;;;;;;;;;;;1.03;71.12;98510.95;1725217;83;20148;-75
2021/03/08 03:29:38;;;;;;;;;;;;;;;0.98;72.58;98511.79;1725461;83;20132;-75
2021/03/08 03:32:06;;;;;;;;;;;;;;;0.93;73.12;98518.62;1697791;83;20251;-74
2021/03/08 03:34:34;;;;;;;;;;;;;;;0.90;73.74;98518.88;1723824;83;20455;-75
2021/03/08 03:37:02;;;;;;;;;;;;;;;0.85;74.63;98513.18;1724726;83;20156;-75
2021/03/08 03:39:30;;;;;;;;;;;;;;;0.81;75.06;98513.88;1701642;83;20132;-74
2021/03/08 03:41:57;;;;;;;;;;;;;;;0.79;75.54;98506.66;1700446;83;20148;-75
2021/03/08 03:44:24;;;;;;;;;;;;;;;0.75;76.00;98509.96;1698414;83;20136;-74
2021/03/08 03:46:51;;;;;;;;;;;;;;;0.73;76.28;98514.91;1700500;83;20128;-74
2021/03/08 03:49:19;;;;;;;;;;;;;;;0.73;76.72;98509.70;1723711;82;20423;-74
2021/03/08 03:51:46;;;;;;;;;;;;;;;0.71;76.84;98508.98;1726213;83;20164;-74
2021/03/08 03:54:13;;;;;;;;;;;;;;;0.68;76.92;98507.94;1723845;83;20272;-74
2021/03/08 03:56:52;;;;;;;;;;;;;;;0.67;77.32;98510.16;1726008;83;20239;-74
2021/03/08 03:59:33;;;;;;;;;;;;;;;0.63;77.38;98510.86;1725515;83;20231;-76
2021/03/08 04:02:04;;;;;;;;;;;;;;;0.65;77.33;98511.58;1727186;83;20227;-75
2021/03/08 04:04:44;;;;;;;;;;;;;;;0.66;77.42;98503.31;1704252;83;20255;-74
2021/03/08 04:07:13;;;;;;;;;;;;;;;0.66;77.28;98505.44;1721542;83;20243;-75
2021/03/08 04:09:40;;;;;;;;;;;;;;;0.68;77.34;98503.55;1699780;83;20128;-75
2021/03/08 04:12:08;;;;;;;;;;;;;;;0.68;77.30;98502.25;1674170;83;20154;-75
2021/03/08 04:14:36;;;;;;;;;;;;;;;0.70;77.08;98502.96;1727027;83;20272;-74
2021/03/08 04:17:03;;;;;;;;;;;;;;;0.70;76.93;98496.94;1724834;83;20420;-73
2021/03/08 04:19:31;;;;;;;;;;;;;;;0.70;76.83;98499.06;1724554;83;20128;-75
2021/03/08 04:22:01;;;;;;;;;;;;;;;0.72;76.98;98496.34;1724996;83;20151;-75
2021/03/08 04:24:31;;;;;;;;;;;;;;;0.72;77.29;98498.95;1727236;83;20187;-75
2021/03/08 04:26:59;;;;;;;;;;;;;;;0.73;77.48;98503.19;1726429;83;20128;-75
2021/03/08 04:29:27;;;;;;;;;;;;;;;0.73;77.77;98492.78;1724750;83;20169;-74
2021/03/08 04:31:56;;;;;;;;;;;;;;;0.72;78.19;98501.55;1719822;83;20427;-75
2021/03/08 04:34:23;;;;;;;;;;;;;;;0.70;78.49;98504.27;1694354;83;20266;-75
2021/03/08 04:36:51;;;;;;;;;;;;;;;0.72;78.40;98505.45;1725750;83;20148;-74
2021/03/08 04:39:19;;;;;;;;;;;;;;;0.71;78.27;98505.08;1724612;83;20412;-75
2021/03/08 04:41:46;;;;;;;;;;;;;;;0.70;78.22;98507.34;1724758;83;20132;-75
2021/03/08 04:44:13;;;;;;;;;;;;;;;0.70;77.99;98508.64;1726335;83;20246;-73
2021/03/08 04:46:40;;;;;;;;;;;;;;;0.73;78.11;98508.39;1725268;83;20239;-74
2021/03/08 04:49:08;;;;;;;;;;;;;;;0.76;77.77;98499.07;1697865;83;20163;-73
2021/03/08 04:51:35;;;;;;;;;;;;;;;0.77;77.64;98505.47;1718435;83;20144;-74
2021/03/08 04:54:03;;;;;;;;;;;;;;;0.78;77.54;98512.80;1724744;83;20259;-75
2021/03/08 04:56:33;;;;;;;;;;;;;;;0.80;77.29;98512.20;1699994;83;20231;-75
2021/03/08 04:59:01;;;;;;;;;;;;;;;0.82;77.13;98514.22;1724368;83;20148;-74
2021/03/08 05:01:32;;;;;;;;;;;;;;;0.84;77.25;98512.36;1702422;83;20224;-74
2021/03/08 05:04:03;;;;;;;;;;;;;;;0.85;77.20;98512.70;1725563;83;20144;-76
2021/03/08 05:06:32;;;;;;;;;;;;;;;0.83;77.71;98508.56;1725580;83;20148;-75
2021/03/08 05:08:59;;;;;;;;;;;;;;;0.75;77.94;98515.65;1723979;83;20148;-75
2021/03/08 05:11:27;;;;;;;;;;;;;;;0.70;78.64;98509.95;1675970;83;20152;-75
2021/03/08 05:13:55;;;;;;;;;;;;;;;0.65;78.83;98509.45;1726749;83;20247;-76
2021/03/08 05:16:23;;;;;;;;;;;;;;;0.65;78.97;98515.95;1724613;83;20172;-75
2021/03/08 05:18:50;;;;;;;;;;;;;;;0.67;79.42;98521.87;1726282;83;20148;-76
2021/03/08 05:21:18;;;;;;;;;;;;;;;0.68;79.46;98517.04;1724535;83;20152;-74
2021/03/08 05:23:45;;;;;;;;;;;;;;;0.70;79.40;98520.36;1726622;82;20140;-75
2021/03/08 05:26:12;;;;;;;;;;;;;;;0.72;79.32;98525.80;1725509;83;20267;-74
2021/03/08 05:28:39;;;;;;;;;;;;;;;0.73;79.35;98518.80;1724581;82;20152;-75
2021/03/08 05:31:07;;;;;;;;;;;;;;;0.76;79.35;98523.80;1726994;82;20148;-75
2021/03/08 05:33:35;;;;;;;;;;;;;;;0.77;79.31;98524.17;1724807;83;20148;-75
2021/03/08 05:36:03;;;;;;;;;;;;;;;0.80;79.21;98521.31;1726360;83;20247;-74
2021/03/08 05:38:31;;;;;;;;;;;;;;;0.81;79.30;98532.09;1727302;83;20398;-75
2021/03/08 05:41:14;;;;;;;;;;;;;;;0.80;79.19;98529.60;1725656;82;20239;-75
2021/03/08 05:43:45;;;;;;;;;;;;;;;0.81;79.27;98534.70;1726132;83;20432;-74
2021/03/08 05:46:16;;;;;;;;;;;;;;;0.81;79.50;98545.11;1701412;83;20141;-75
2021/03/08 05:49:18;;;;;;;;;;;;;;;0.77;79.43;98543.20;1724324;83;20159;-74
2021/03/08 05:52:15;;;;;;;;;;;;;;;0.80;79.73;98562.96;1725747;83;20148;-77
2021/03/08 05:55:08;;;;;;;;;;;;;;;0.80;79.67;98555.16;1725981;83;20179;-74
2021/03/08 05:57:50;;;;;;;;;;;;;;;0.79;79.95;98567.83;1727069;83;20152;-75
2021/03/08 06:00:41;;;;;;;;;;;;;;;0.80;78.04;98564.74;1701510;82;20223;-74
2021/03/08 06:03:29;;;;;;;;;;;;;;;0.81;76.42;98567.23;1723998;82;20160;-75
2021/03/08 06:06:16;;;;;;;;;;;;;;;0.84;74.26;98567.02;1725705;83;20136;-76
2021/03/08 06:09:22;;;;;;;;;;;;;;;0.82;72.56;98585.80;1725657;83;20243;-72
2021/03/08 06:12:02;;;;;;;;;;;;;;;0.83;71.34;98574.94;1723858;83;20384;-76
2021/03/08 06:14:42;;;;;;;;;;;;;;;0.78;68.30;98590.39;1725405;83;20141;-76
2021/03/08 06:17:12;;;;;;;;;;;;;;;0.75;66.82;98588.52;1725879;83;20172;-74
2021/03/08 06:19:40;;;;;;;;;;;;;;;0.69;66.55;98601.95;1727071;83;20155;-74
2021/03/08 06:22:09;;;;;;;;;;;;;;;0.68;66.27;98609.42;1700379;83;20132;-75
2021/03/08 06:24:42;;;;;;;;;;;;;;;0.72;65.47;98612.16;1701254;83;21142;-75
2021/03/08 06:27:11;;;;;;;;;;;;;;;0.75;65.47;98622.35;1725232;82;20152;-76
2021/03/08 06:29:39;;;;;;;;;;;;;;;0.77;65.29;98628.27;1718999;83;20207;-74
2021/03/08 06:32:07;;;;;;;;;;;;;;;0.83;64.91;98627.00;1707722;84;20392;-75
2021/03/08 06:34:35;;;;;;;;;;;;;;;0.85;64.63;98622.51;1701037;83;20247;-74
2021/03/08 06:37:08;;;;;;;;;;;;;;;0.89;64.41;98629.14;1724518;83;20243;-75
2021/03/08 06:39:37;;;;;;;;;;;;;;;0.90;64.19;98640.75;1720679;83;20420;-75
2021/03/08 06:42:06;;;;;;;;;;;;;;;0.90;64.18;98643.83;1718366;82;20180;-76
2021/03/08 06:44:34;;;;;;;;;;;;;;;0.89;64.13;98635.17;1724574;82;20423;-73
2021/03/08 06:47:01;;;;;;;;;;;;;;;0.90;63.53;98640.75;1724786;83;20143;-75
2021/03/08 06:49:29;;;;;;;;;;;;;;;0.91;63.09;98635.06;1724187;83;20232;-76
2021/03/08 06:52:04;;;;;;;;;;;;;;;0.93;62.59;98637.90;1725799;81;20148;-74
2021/03/08 06:54:32;;;;;;;;;;;;;;;0.98;61.86;98640.66;1695199;82;20147;-75
2021/03/08 06:57:00;;;;;;;;;;;;;;;1.01;60.71;98632.16;1701742;83;20168;-75
2021/03/08 06:59:27;;;;;;;;;;;;;;;1.01;60.52;98644.33;1725879;83;20175;-75
2021/03/08 07:01:54;;;;;;;;;;;;;;;1.02;59.33;98638.19;1725673;83;20423;-77
2021/03/08 07:04:23;;;;;;;;;;;;;;;0.98;57.97;98631.55;1702800;83;20156;-77
2021/03/08 07:07:00;;;;;;;;;;;;;;;0.88;57.43;98631.38;1698708;83;20228;-76
2021/03/08 07:09:29;;;;;;;;;;;;;;;0.76;57.83;98630.02;1698780;83;20236;-75
2021/03/08 07:12:10;;;;;;;;;;;;;;;0.78;58.50;98644.23;1725692;83;20132;-76
2021/03/08 07:14:38;;;;;;;;;;;;;;;0.84;58.40;98640.36;1671354;85;20136;-74
2021/03/08 07:17:29;;;;;;;;;;;;;;;0.83;58.58;98638.23;1668521;85;20271;-74
2021/03/08 07:19:59;;;;;;;;;;;;;;;0.89;58.85;98641.67;1656241;85;20144;-75
2021/03/08 07:22:50;;;;;;;;;;;;;;;0.95;59.07;98646.45;1722826;83;20239;-77
2021/03/08 07:25:27;;;;;;;;;;;;;;;1.03;58.75;98642.44;1722849;83;20148;-76
2021/03/08 07:27:56;;;;;;;;;;;;;;;1.11;58.80;98649.23;1725128;83;20148;-74
2021/03/08 07:30:27;;;;;;;;;;;;;;;1.23;58.63;98647.48;1702467;83;20147;-75
2021/03/08 07:33:00;;;;;;;;;;;;;;;1.30;58.16;98653.42;1698397;83;20431;-75
2021/03/08 07:35:37;;;;;;;;;;;;;;;1.38;57.62;98652.02;1720954;83;20145;-74
2021/03/08 07:38:05;;;;;;;;;;;;;;;1.41;57.18;98646.59;1724824;82;20148;-74
2021/03/08 07:40:34;;;;;;;;;;;;;;;1.52;56.80;98653.13;1724589;82;20128;-74
2021/03/08 07:43:02;;;;;;;;;;;;;;;1.68;56.46;98654.94;1724268;82;20148;-76
2021/03/08 07:45:44;;;;;;;;;;;;;;;1.86;55.81;98650.07;1725102;83;20168;-75
2021/03/08 07:48:15;;;;;;;;;;;;;;;1.92;55.78;98652.68;1723549;83;20235;-75
2021/03/08 07:50:49;;;;;;;;;;;;;;;2.04;55.45;98646.53;1723471;82;20234;-76
2021/03/08 07:53:34;;;;;;;;;;;;;;;2.24;55.73;98657.17;1726695;83;20415;-75
2021/03/08 07:56:06;;;;;;;;;;;;;;;2.40;54.73;98657.63;1724117;82;20416;-76
2021/03/08 07:58:35;;;;;;;;;;;;;;;2.50;54.03;98652.03;1721830;83;20243;-76
2021/03/08 08:01:06;;;;;;;;;;;;;;;2.64;53.61;98648.81;1699177;83;20239;-76
2021/03/08 08:03:35;;;;;;;;;;;;;;;3.10;53.40;98652.91;1724675;83;20438;-77
2021/03/08 08:06:06;;;;;;;;;;;;;;;4.32;52.44;98655.77;1726712;83;20139;-76
2021/03/08 08:08:34;;;;;;;;;;;;;;;5.82;47.58;98646.19;1725433;83;20180;-77
2021/03/08 08:11:03;;;;;;;;;;;;;;;7.41;44.55;98641.97;1725407;83;20163;-74
2021/03/08 08:13:36;;;;;;;;;;;;;;;8.23;39.41;98640.66;1726510;83;20256;-77
2021/03/08 08:16:07;;;;;;;;;;;;;;;8.46;39.26;98641.42;1701670;83;20132;-76
2021/03/08 08:18:43;;;;;;;;;;;;;;;8.86;37.57;98644.64;1724714;82;20151;-75
2021/03/08 08:21:14;;;;;;;;;;;;;;;9.04;36.13;98636.59;1724135;83;20502;-73
2021/03/08 08:23:44;;;;;;;;;;;;;;;9.01;36.03;98643.51;1724165;82;20144;-75
2021/03/08 08:26:18;;;;;;;;;;;;;;;9.03;36.24;98648.62;1700459;83;20191;-76
2021/03/08 08:28:46;;;;;;;;;;;;;;;9.67;35.04;98637.73;1725776;83;20266;-75
2021/03/08 08:31:14;;;;;;;;;;;;;;;10.17;31.61;98645.02;1722716;83;20167;-75
2021/03/08 08:33:42;;;;;;;;;;;;;;;10.84;31.29;98635.30;1727182;83;20172;-76
2021/03/08 08:36:24;;;;;;;;;;;;;;;11.65;30.41;98630.84;1725966;83;20148;-75
2021/03/08 08:38:55;;;;;;;;;;;;;;;12.08;28.89;98626.30;1699898;83;20181;-75
2021/03/08 08:41:27;;;;;;;;;;;;;;;12.39;28.07;98631.39;1725866;82;20152;-75
2021/03/08 08:44:14;;;;;;;;;;;;;;;13.12;26.57;98631.37;1723619;82;20168;-75
2021/03/08 08:46:42;;;;;;;;;;;;;;;13.62;24.81;98640.72;1725004;83;20415;-76
2021/03/08 08:49:18;;;;;;;;;;;;;;;13.72;24.01;98605.31;1724315;83;20155;-77
2021/03/08 08:51:57;;;;;;;;;;;;;;;13.42;24.24;98631.25;1724646;82;20147;-76
2021/03/08 08:54:30;;;;;;;;;;;;;;;13.44;24.90;98639.84;1724866;83;20234;-74
2021/03/08 08:57:06;;;;;;;;;;;;;;;14.24;23.74;98634.55;1725063;83;20413;-77
2021/03/08 08:59:34;;;;;;;;;;;;;;;15.25;22.55;98627.19;1702225;83;20156;-75
2021/03/08 09:02:17;;;;;;;;;;;;;;;15.70;21.37;98635.38;1696084;83;20510;-74
2021/03/08 09:04:45;;;;;;;;;;;;;;;16.24;20.77;98643.31;1722448;82;20151;-76
2021/03/08 09:07:28;;;;;;;;;;;;;;;16.92;19.64;98636.67;1723925;83;20139;-76
2021/03/08 09:09:58;;;;;;;;;;;;;;;17.60;19.01;98652.00;1723000;82;20144;-76
2021/03/08 09:12:38;;;;;;;;;;;;;;;17.86;18.57;98644.28;1722659;82;21078;-76
2021/03/08 09:15:11;;;;;;;;;;;;;;;18.08;18.13;98647.37;1724120;83;20263;-76
2021/03/08 09:17:51;;;;;;;;;;;;;;;18.10;17.87;98652.50;1725103;82;20128;-74
2021/03/08 09:20:20;;;;;;;;;;;;;;;18.39;17.54;98656.31;1721577;82;20144;-75
2021/03/08 09:22:58;;;;;;;;;;;;;;;18.96;17.56;98658.17;1725930;83;20231;-75
2021/03/08 09:25:30;;;;;;;;;;;;;;;19.25;16.79;98635.61;1723202;82;20200;-76
2021/03/08 09:28:02;;;;;;;;;;;;;;;19.07;16.96;98649.07;1725430;82;20156;-75
2021/03/08 09:30:32;;;;;;;;;;;;;;;18.15;17.52;98658.82;1702516;83;20144;-76
2021/03/08 09:33:11;;;;;;;;;;;;;;;17.03;18.16;98654.68;1725291;83;20471;-75
2021/03/08 09:35:44;;;;;;;;;;;;;;;16.09;18.30;98671.03;1726523;83;20140;-76
2021/03/08 09:38:14;;;;;;;;;;;;;;;16.07;18.19;98666.42;1700491;84;20253;-76
2021/03/08 09:40:44;;;;;;;;;;;;;;;16.66;18.32;98667.28;1725701;83;20183;-76
2021/03/08 09:43:26;;;;;;;;;;;;;;;17.07;18.14;98659.89;1727047;83;20199;-76
2021/03/08 09:45:55;;;;;;;;;;;;;;;17.19;16.99;98672.06;1725657;83;20173;-75
2021/03/08 09:48:23;;;;;;;;;;;;;;;17.13;16.75;98666.22;1725604;83;20148;-75
2021/03/08 09:50:51;;;;;;;;;;;;;;;16.77;17.34;98667.10;1724839;82;20263;-75
2021/03/08 09:53:20;;;;;;;;;;;;;;;16.11;17.31;98668.97;1725094;82;20272;-74
2021/03/08 09:55:47;;;;;;;;;;;;;;;15.36;17.48;98668.90;1727738;82;20256;-76
2021/03/08 09:58:18;;;;;;;;;;;;;;;15.06;17.64;98668.74;1723850;83;20156;-74
2021/03/08 10:00:48;;;;;;;;;;;;;;;15.41;17.57;98662.42;1722296;82;20244;-76
2021/03/08 10:03:15;;;;;;;;;;;;;;;16.41;17.64;98663.67;1702991;83;20416;-75
2021/03/08 10:05:47;;;;;;;;;;;;;;;17.58;16.59;98665.61;1724399;83;20168;-75
2021/03/08 10:08:16;;;;;;;;;;;;;;;18.58;15.92;98658.45;1724497;82;20180;-76
2021/03/08 10:10:48;;;;;;;;;;;;;;;19.01;14.38;98666.34;1725762;82;20148;-74
2021/03/08 10:13:16;;;;;;;;;;;;;;;17.94;14.72;98669.42;1701154;83;20175;-76
2021/03/08 10:15:54;;;;;;;;;;;;;;;16.32;16.09;98672.41;1702040;83;20148;-75
2021/03/08 10:18:29;;;;;;;;;;;;;;;15.51;17.31;98669.00;1722703;83;20239;-75
2021/03/08 10:20:59;;;;;;;;;;;;;;;14.92;17.52;98669.20;1696365;83;20147;-75
2021/03/08 10:23:29;;;;;;;;;;;;;;;14.16;18.50;98676.74;1720643;83;20243;-75
2021/03/08 10:26:11;;;;;;;;;;;;;;;13.58;18.25;98670.82;1725843;83;20148;-73
2021/03/08 10:28:51;;;;;;;;;;;;;;;13.44;18.69;98667.22;1726019;82;20156;-75
2021/03/08 10:31:26;;;;;;;;;;;;;;;14.16;18.45;98674.08;1723576;83;20191;-74
2021/03/08 10:34:07;;;;;;;;;;;;;;;15.07;17.56;98659.72;1723932;83;20148;-75
2021/03/08 10:36:37;;;;;;;;;;;;;;;15.55;17.24;98654.75;1728454;82;20180;-75
2021/03/08 10:39:07;;;;;;;;;;;;;;;16.32;17.02;98659.07;1725758;83;20156;-76
2021/03/08 10:41:35;;;;;;;;;;;;;;;16.93;16.37;98656.48;1725055;83;20246;-75
2021/03/08 10:44:03;;;;;;;;;;;;;;;16.71;16.28;98656.47;1725197;82;20223;-75
2021/03/08 10:46:30;;;;;;;;;;;;;;;15.91;16.82;98658.33;1725829;83;20235;-75
2021/03/08 10:49:06;;;;;;;;;;;;;;;14.58;17.52;98653.34;1698277;83;20172;-75
2021/03/08 10:51:34;;;;;;;;;;;;;;;13.48;18.64;98663.67;1726454;83;20132;-75
2021/03/08 10:54:07;;;;;;;;;;;;;;;12.77;19.81;98673.17;1725215;82;20139;-73
2021/03/08 10:56:36;;;;;;;;;;;;;;;12.28;19.82;98668.98;1726619;83;20148;-75
2021/03/08 10:59:06;;;;;;;;;;;;;;;11.81;20.84;98662.98;1726205;83;20505;-75
2021/03/08 11:01:34;;;;;;;;;;;;;;;11.55;21.22;98664.72;1722982;83;20240;-77
2021/03/08 11:04:01;;;;;;;;;;;;;;;11.37;21.22;98661.05;1726494;83;20171;-75
2021/03/08 11:06:28;;;;;;;;;;;;;;;11.11;21.64;98655.64;1725717;82;20431;-75
2021/03/08 11:09:01;;;;;;;;;;;;;;;11.37;21.55;98655.28;1727627;81;20431;-76
2021/03/08 11:11:34;;;;;;;;;;;;;;;11.56;21.08;98655.28;1725333;82;20148;-75
2021/03/08 11:14:05;;;;;;;;;;;;;;;11.22;20.57;98664.97;1726314;83;20211;-73
2021/03/08 11:16:33;;;;;;;;;;;;;;;10.55;20.83;98653.17;1726354;83;20148;-76
2021/03/08 11:19:16;;;;;;;;;;;;;;;9.94;21.12;98657.32;1723905;83;20239;-75
2021/03/08 11:21:44;;;;;;;;;;;;;;;9.66;22.57;98659.02;1724258;83;20294;-75
2021/03/08 11:24:22;;;;;;;;;;;;;;;9.72;22.64;98662.30;1726845;83;20507;-74
2021/03/08 11:27:24;;;;;;;;;;;;;;;9.75;22.46;98654.05;1726919;82;20230;-76
2021/03/08 11:30:06;;;;;;;;;;;;;;;9.82;22.75;98656.36;1723312;83;20231;-75
2021/03/08 11:32:36;;;;;;;;;;;;;;;10.01;22.11;98643.77;1720404;83;20387;-74
2021/03/08 11:35:07;;;;;;;;;;;;;;;9.88;22.12;98650.90;1722252;83;20235;-75
2021/03/08 11:37:37;;;;;;;;;;;;;;;9.42;22.49;98656.71;1698782;83;20407;-75
2021/03/08 11:40:06;;;;;;;;;;;;;;;9.00;23.00;98648.47;1724636;83;20297;-75
2021/03/08 11:42:33;;;;;;;;;;;;;;;8.70;23.49;98645.95;1687082;83;20148;-74
2021/03/08 11:45:00;;;;;;;;;;;;;;;8.62;24.26;98658.61;1723445;83;20219;-72
2021/03/08 11:47:27;;;;;;;;;;;;;;;8.73;24.04;98649.09;1727915;83;20178;-74
2021/03/08 11:49:56;;;;;;;;;;;;;;;8.59;22.84;98654.16;1725896;83;20581;-74
2021/03/08 11:52:24;;;;;;;;;;;;;;;8.13;23.64;98658.38;1726923;83;20431;-76
2021/03/08 11:54:51;;;;;;;;;;;;;;;7.74;24.23;98664.07;1726658;81;20231;-74
2021/03/08 11:57:20;;;;;;;;;;;;;;;7.42;25.02;98664.17;1702409;83;20148;-74
2021/03/08 11:59:47;;;;;;;;;;;;;;;7.17;26.26;98673.18;1726286;83;20148;-75
2021/03/08 12:02:14;;;;;;;;;;;;;;;6.91;27.64;98659.14;1726926;83;20297;-74
2021/03/08 12:04:42;;;;;;;;;;;;;;;6.67;28.77;98671.53;1725280;83;20140;-72
2021/03/08 12:07:10;;;;;;;;;;;;;;;6.50;29.35;98673.16;1698447;84;20235;-76
2021/03/08 12:09:39;;;;;;;;;;;;;;;6.39;29.63;98677.61;1703505;84;20136;-74
2021/03/08 12:12:07;;;;;;;;;;;;;;;6.28;29.68;98679.12;1703921;84;20135;-75
2021/03/08 12:14:35;;;;;;;;;;;;;;;6.16;30.04;98683.73;1672162;85;20154;-74
2021/03/08 12:17:04;;;;;;;;;;;;;;;5.98;30.29;98679.71;1639137;85;20173;-73
2021/03/08 12:19:33;;;;;;;;;;;;;;;5.81;30.80;98694.86;1665659;86;20459;-75
2021/03/08 12:22:01;;;;;;;;;;;;;;;5.70;31.44;98695.84;1720787;82;20295;-75
2021/03/08 12:24:28;;;;;;;;;;;;;;;5.64;31.90;98701.66;1725079;82;20275;-75
2021/03/08 12:26:55;;;;;;;;;;;;;;;5.54;32.22;98696.44;1699724;83;20231;-75
2021/03/08 12:29:23;;;;;;;;;;;;;;;5.43;32.49;98701.83;1717325;83;20133;-75
2021/03/08 12:31:50;;;;;;;;;;;;;;;5.33;32.63;98706.23;1691901;84;20145;-75
2021/03/08 12:34:18;;;;;;;;;;;;;;;5.21;32.84;98701.62;1672104;84;20162;-76
2021/03/08 12:36:45;;;;;;;;;;;;;;;5.12;33.06;98707.69;1660678;86;20271;-76
2021/03/08 12:39:12;;;;;;;;;;;;;;;4.95;32.61;98709.19;1726911;83;20423;-73
2021/03/08 12:41:39;;;;;;;;;;;;;;;4.86;32.62;98716.05;1723787;83;20259;-75
2021/03/08 12:44:09;;;;;;;;;;;;;;;4.85;32.79;98723.09;1677901;82;20140;-74
2021/03/08 12:46:37;;;;;;;;;;;;;;;4.83;32.19;98727.64;1723847;82;20263;-73
2021/03/08 12:49:04;;;;;;;;;;;;;;;4.78;32.21;98714.11;1725577;82;20172;-75
2021/03/08 12:51:32;;;;;;;;;;;;;;;4.70;32.26;98715.28;1725560;82;20280;-74
2021/03/08 12:53:59;;;;;;;;;;;;;;;4.66;32.80;98721.75;1725392;83;20499;-74
2021/03/08 12:56:26;;;;;;;;;;;;;;;4.62;33.15;98731.66;1725588;82;20416;-73
2021/03/08 12:58:54;;;;;;;;;;;;;;;4.61;33.30;98731.30;1724412;82;20231;-74
2021/03/08 13:01:22;;;;;;;;;;;;;;;4.52;32.69;98728.66;1724777;83;20183;-74
2021/03/08 13:03:50;;;;;;;;;;;;;;;4.33;32.78;98747.25;1700131;83;20176;-74
2021/03/08 13:06:19;;;;;;;;;;;;;;;4.22;32.93;98725.91;1727146;83;20144;-74
2021/03/08 13:08:49;;;;;;;;;;;;;;;4.11;32.99;98731.23;1722902;83;20152;-75
2021/03/08 13:11:16;;;;;;;;;;;;;;;4.02;33.44;98733.31;1700048;83;20160;-74
2021/03/08 13:13:43;;;;;;;;;;;;;;;3.95;33.97;98729.09;1724603;82;20148;-73
2021/03/08 13:16:11;;;;;;;;;;;;;;;3.87;33.75;98742.82;1724522;83;20235;-74